This is the latest recevied weather packets stored in our database for station/object KE8GJZ-1. If no packets are shown the sender has not sent any weather packets the latest 10 day(s).
| Time | Temp. | Humidity | Pressure | Rain* | Wind** | Luminosity | Snow |
|---|---|---|---|---|---|---|---|
| 1777689638 | 4.44° C | 76% | 1014.4 hPa | 0 mm | - | 0 W/m² | - |
| 1777689335 | 4.44° C | 75% | 1014.3 hPa | 0 mm | - | 0 W/m² | - |
| 1777689032 | 4.44° C | 73% | 1014.3 hPa | 0 mm | - | 0 W/m² | - |
| 1777688728 | 4.44° C | 74% | 1014.3 hPa | 0 mm | - | 0 W/m² | - |
| 1777688426 | 4.44° C | 73% | 1014.4 hPa | 0 mm | - | 0 W/m² | - |
| 1777687820 | 4.44° C | 72% | 1014.6 hPa | 0 mm | - | 0 W/m² | - |
| 1777687518 | 5° C | 74% | 1014.2 hPa | 0 mm | - | 0 W/m² | - |
| 1777672973 | 8.89° C | 60% | 1012.8 hPa | 0 mm | - | 93 W/m² | - |
| 1777672670 | 8.89° C | 59% | 1013 hPa | 0 mm | - | 111 W/m² | - |
| 1777671453 | 8.33° C | 63% | 1012.7 hPa | 0 mm | - | 190 W/m² | - |
| 1777671149 | 8.33° C | 66% | 1013 hPa | 0 mm | - | 136 W/m² | - |
| 1777670845 | 7.78° C | 64% | 1012.8 hPa | 0 mm | - | 101 W/m² | - |
| 1777670542 | 8.33° C | 61% | 1012.8 hPa | 0 mm | - | 57 W/m² | - |
| 1777670239 | 8.89° C | 58% | 1012.9 hPa | 0 mm | - | 49 W/m² | - |
| 1777669633 | 8.89° C | 58% | 1012.6 hPa | 0 mm | - | 91 W/m² | - |
| 1777669330 | 8.89° C | 58% | 1012.4 hPa | 0 mm | - | 115 W/m² | - |
| 1777669026 | 9.44° C | 56% | 1012.3 hPa | 0 mm | - | 86 W/m² | - |
| 1777668421 | 10° C | 52% | 1012.2 hPa | 0 mm | - | 111 W/m² | - |
| 1777668116 | 10° C | 53% | 1012.4 hPa | 0 mm | - | 159 W/m² | - |
| 1777667813 | 10.56° C | 50% | 1012.3 hPa | 0 mm | - | 165 W/m² | - |
| 1777667511 | 10.56° C | 50% | 1012.3 hPa | 0 mm | - | 173 W/m² | - |
| 1777667208 | 10.56° C | 51% | 1012.1 hPa | 0 mm | - | 262 W/m² | - |
| 1777666904 | 10° C | 51% | 1012.2 hPa | 0 mm | - | 601 W/m² | - |
| 1777666601 | 10° C | 52% | 1012.4 hPa | 0 mm | - | 209 W/m² | - |
| 1777666298 | 10° C | 50% | 1012.2 hPa | 0 mm | - | 174 W/m² | - |
* Rain latest hour (hover to see other rain measurements)
** Current wind speed in m/s (hover to see current wind gust speed)